Airfield :
LOGIN :

Register | Disclaimer

   EN    FR    IT 

 










Legend :    VFR   Marginal VFR   IFR   Intensive IFR   Very Intensive IFR
Visi :
Ceiling :
>= 8 km
>= 3000ft
5 to 8 km
1000 to 3000 ft
1500m to 5 km
500 to 1000 ft
800 to 1500m
200 to 500 ft
< 800m
< 200 ft
Symbols :   Thunderstorms  Fog  Heavy snow  Heavy precipitations  Wind > 20 kt
SIGMETs :     Misc.  Thunderstorms  Icing  Turbulence  Mountain Waves  Volcanic Ashes







- Airport Elevation : 128 ft


ETND - Diepholz

CURRENT METAR :
  • 210802Z 20001KT 5000 BR FEW110 BKN300 M08/M08 Q1023 WHT WHT TEMPO YLO

EXPIRED METARs :
  • 210720Z 20003KT 3700 BR BKN300 M08/M09 Q1022 GRN WHT TEMPO YLO
  • 210703Z 21002KT 1600 BR FEW300 M07/M08 Q1022 YLO YLO TEMPO RED
  • 210620Z 20001KT 0800 FZFG FEW300 M08/M08 Q1022 AMB YLO TEMPO RED
  • 210520Z 19001KT 0800 FZFG FEW039 M08/M08 Q1022 AMB YLO TEMPO RED

TAF AMD TAF ETND
Valid from the 21 at 07:00 until the 21 at 15:00 UTC


210720Z 2107/2115 20005KT 6000 NSW SCT020 BKN050
TEMPO 2107/2113 VRB03KT 3500 BR SCT050
TEMPO 2113/2115 25012KT 4000 -SN BKN020 BY ETGL
No reported NOTAMs for that airfield.



MET'MAP, your aeronautical weather chart ! - Copyright ORBIFLY December 2007 - Disclaimer

ORBIFLY MET'MAP TEAM :

Programming & Development : Alexandra Zaïnal
Concept & Development : Baudouin d'Aumeries
Co-Development & Prog : Marc-Olivier Méhu
Technical & hardware support : Manuel Goepfert

Contact : metmap@orbifly.com




SOURCES & CREDITS :

   NOAA